createdAt,value
2018-04-24T00:00:50.384Z,946.02
2018-04-24T00:01:50.296Z,946.03
2018-04-24T00:02:50.207Z,946.03
2018-04-24T00:03:50.141Z,946.04
2018-04-24T00:04:50.121Z,946.02
2018-04-24T00:05:49.930Z,946.03
2018-04-24T00:06:49.838Z,946.03
2018-04-24T00:07:49.750Z,946.04
2018-04-24T00:08:49.658Z,946.03
2018-04-24T00:09:49.604Z,946.05
2018-04-24T00:10:49.473Z,946.02
2018-04-24T00:11:49.475Z,946.06
2018-04-24T00:12:49.291Z,946.05
2018-04-24T00:13:49.203Z,946.02
2018-04-24T00:14:49.141Z,946.06
2018-04-24T00:15:49.016Z,946.08
2018-04-24T00:16:48.926Z,946.09
2018-04-24T00:17:48.838Z,946.10
2018-04-24T00:18:48.855Z,946.03
2018-04-24T00:19:48.678Z,946.01
2018-04-24T00:20:49.430Z,946.03
2018-04-24T00:21:48.470Z,946.02
2018-04-24T00:22:48.375Z,945.99
2018-04-24T00:23:48.284Z,945.99
2018-04-24T00:24:48.222Z,946.00
2018-04-24T00:25:48.104Z,946.03
2018-04-24T00:26:48.010Z,945.99
2018-04-24T00:27:47.918Z,945.99
2018-04-24T00:28:47.836Z,945.97
2018-04-24T00:29:47.767Z,945.99
2018-04-24T00:30:47.647Z,945.99
2018-04-24T00:31:49.382Z,945.99
2018-04-24T00:32:47.556Z,945.98
2018-04-24T00:33:47.370Z,945.99
2018-04-24T00:34:47.309Z,945.94
2018-04-24T00:35:47.190Z,946.00
2018-04-24T00:36:47.095Z,945.99
2018-04-24T00:37:47.004Z,945.96
2018-04-24T00:38:46.915Z,945.97
2018-04-24T00:39:46.944Z,945.94
2018-04-24T00:40:46.730Z,945.94
2018-04-24T00:41:46.644Z,945.94
2018-04-24T00:42:46.549Z,945.96
2018-04-24T00:43:46.458Z,945.96
2018-04-24T00:44:46.393Z,945.96
2018-04-24T00:45:46.315Z,945.93
2018-04-24T00:46:46.276Z,945.94
2018-04-24T00:47:46.129Z,945.95
2018-04-24T00:48:45.997Z,945.93
2018-04-24T00:49:45.939Z,945.93
2018-04-24T00:50:45.814Z,945.89
2018-04-24T00:51:45.724Z,945.91
2018-04-24T00:52:45.633Z,945.94
2018-04-24T00:53:45.638Z,945.98
2018-04-24T00:54:45.478Z,945.95
2018-04-24T00:55:45.356Z,945.98
2018-04-24T00:56:45.271Z,946.02
2018-04-24T00:57:45.177Z,946.00
2018-04-24T00:58:45.082Z,946.02
2018-04-24T00:59:45.022Z,946.03
2018-04-24T01:00:44.997Z,946.07
2018-04-24T01:01:44.812Z,946.12
2018-04-24T01:02:44.720Z,946.14
2018-04-24T01:03:45.391Z,946.12
2018-04-24T01:04:44.564Z,946.15
2018-04-24T01:05:44.451Z,946.16
2018-04-24T01:06:44.366Z,946.19
2018-04-24T01:07:44.357Z,946.22
2018-04-24T01:08:44.890Z,946.17
2018-04-24T01:09:44.110Z,946.22
2018-04-24T01:10:43.989Z,946.23
2018-04-24T01:11:43.900Z,946.27
2018-04-24T01:12:43.807Z,946.29
2018-04-24T01:13:43.719Z,946.29
2018-04-24T01:14:43.631Z,946.26
2018-04-24T01:15:43.565Z,946.32
2018-04-24T01:16:43.450Z,946.29
2018-04-24T01:17:43.352Z,946.31
2018-04-24T01:18:43.262Z,946.35
2018-04-24T01:19:43.186Z,946.33
2018-04-24T01:20:43.108Z,946.30
2018-04-24T01:21:42.991Z,946.36
2018-04-24T01:22:42.899Z,946.41
2018-04-24T01:23:42.806Z,946.38
2018-04-24T01:24:42.720Z,946.36
2018-04-24T01:25:42.655Z,946.34
2018-04-24T01:26:42.536Z,946.34
2018-04-24T01:27:42.458Z,946.33
2018-04-24T01:28:42.355Z,946.33
2018-04-24T01:29:42.264Z,946.29
2018-04-24T01:30:42.896Z,946.31
2018-04-24T01:31:42.084Z,946.34
2018-04-24T01:32:41.994Z,946.31
2018-04-24T01:33:41.900Z,946.33
2018-04-24T01:34:41.811Z,946.33
2018-04-24T01:35:41.757Z,946.34
2018-04-24T01:36:41.633Z,946.29
2018-04-24T01:37:41.538Z,946.31
2018-04-24T01:38:41.448Z,946.34
2018-04-24T01:39:41.393Z,946.40
2018-04-24T01:40:41.308Z,946.36
2018-04-24T01:41:41.183Z,946.36
2018-04-24T01:42:41.083Z,946.37
2018-04-24T01:43:40.998Z,946.37
2018-04-24T01:44:40.904Z,946.35
2018-04-24T01:45:40.843Z,946.36
2018-04-24T01:46:40.724Z,946.40
2018-04-24T01:47:40.629Z,946.34
2018-04-24T01:48:40.540Z,946.32
2018-04-24T01:49:40.450Z,946.34
2018-04-24T01:50:40.401Z,946.38
2018-04-24T01:51:40.268Z,946.38
2018-04-24T01:52:40.176Z,946.35
2018-04-24T01:53:40.085Z,946.35
2018-04-24T01:54:39.998Z,946.32
2018-04-24T01:55:39.937Z,946.31
2018-04-24T01:56:39.817Z,946.31
2018-04-24T01:57:39.722Z,946.32
2018-04-24T01:58:39.630Z,946.28
2018-04-24T01:59:41.403Z,946.27
2018-04-24T02:00:39.476Z,946.29
2018-04-24T02:01:39.359Z,946.26
2018-04-24T02:02:39.390Z,946.26
2018-04-24T02:03:40.903Z,946.25
2018-04-24T02:04:39.087Z,946.19
2018-04-24T02:05:39.023Z,946.20
2018-04-24T02:06:38.907Z,946.20
2018-04-24T02:07:38.810Z,946.21
2018-04-24T02:08:38.723Z,946.26
2018-04-24T02:09:38.631Z,946.27
2018-04-24T02:10:38.570Z,946.25
2018-04-24T02:11:38.450Z,946.21
2018-04-24T02:12:38.357Z,946.25
2018-04-24T02:13:38.268Z,946.23
2018-04-24T02:14:38.178Z,946.25
2018-04-24T02:15:38.113Z,946.27
2018-04-24T02:16:37.991Z,946.30
2018-04-24T02:17:37.903Z,946.31
2018-04-24T02:18:37.811Z,946.33
2018-04-24T02:19:37.717Z,946.33
2018-04-24T02:20:37.634Z,946.36
2018-04-24T02:21:37.595Z,946.42
2018-04-24T02:22:37.450Z,946.48
2018-04-24T02:23:37.357Z,946.51
2018-04-24T02:24:37.268Z,946.49
2018-04-24T02:25:37.174Z,946.50
2018-04-24T02:26:37.112Z,946.51
2018-04-24T02:27:36.996Z,946.50
2018-04-24T02:28:36.898Z,946.49
2018-04-24T02:29:36.811Z,946.54
2018-04-24T02:30:36.729Z,946.51
2018-04-24T02:31:36.656Z,946.51
2018-04-24T02:32:36.535Z,946.47
2018-04-24T02:33:36.447Z,946.50
2018-04-24T02:34:36.356Z,946.51
2018-04-24T02:35:36.266Z,946.48
2018-04-24T02:36:36.203Z,946.49
2018-04-24T02:37:36.082Z,946.44
2018-04-24T02:38:35.990Z,946.43
2018-04-24T02:39:35.897Z,946.39
2018-04-24T02:40:35.807Z,946.41
2018-04-24T02:41:35.750Z,946.38
2018-04-24T02:42:35.627Z,946.35
2018-04-24T02:43:35.535Z,946.41
2018-04-24T02:44:35.446Z,946.40
2018-04-24T02:45:35.351Z,946.36
2018-04-24T02:46:35.291Z,946.35
2018-04-24T02:47:35.170Z,946.35
2018-04-24T02:48:35.078Z,946.37
2018-04-24T02:49:34.991Z,946.38
2018-04-24T02:50:34.906Z,946.34
2018-04-24T02:51:34.836Z,946.36
2018-04-24T02:52:34.719Z,946.37
2018-04-24T02:53:34.627Z,946.34
2018-04-24T02:54:34.534Z,946.39
2018-04-24T02:55:34.442Z,946.34
2018-04-24T02:56:34.382Z,946.38
2018-04-24T02:57:34.266Z,946.37
2018-04-24T02:58:34.170Z,946.34
2018-04-24T02:59:34.079Z,946.35
2018-04-24T03:00:33.986Z,946.35
2018-04-24T03:01:33.929Z,946.35
2018-04-24T03:02:33.802Z,946.33
2018-04-24T03:03:33.714Z,946.32
2018-04-24T03:04:33.623Z,946.27
2018-04-24T03:05:33.531Z,946.32
2018-04-24T03:06:33.469Z,946.32
2018-04-24T03:07:33.352Z,946.35
2018-04-24T03:08:33.257Z,946.35
2018-04-24T03:09:33.169Z,946.36
2018-04-24T03:10:33.078Z,946.32
2018-04-24T03:11:33.018Z,946.29
2018-04-24T03:12:32.893Z,946.28
2018-04-24T03:13:32.803Z,946.29
2018-04-24T03:14:32.711Z,946.26
2018-04-24T03:15:32.619Z,946.25
2018-04-24T03:16:32.556Z,946.25
2018-04-24T03:17:32.439Z,946.24
2018-04-24T03:18:32.350Z,946.24
2018-04-24T03:19:32.257Z,946.21
2018-04-24T03:20:32.447Z,946.25
2018-04-24T03:21:32.102Z,946.24
2018-04-24T03:22:31.986Z,946.24
2018-04-24T03:23:31.891Z,946.22
2018-04-24T03:24:31.800Z,946.16
2018-04-24T03:25:31.708Z,946.18
2018-04-24T03:26:31.646Z,946.15
2018-04-24T03:27:31.623Z,946.14
2018-04-24T03:28:31.434Z,946.16
2018-04-24T03:29:31.344Z,946.13
2018-04-24T03:30:31.252Z,946.13
2018-04-24T03:31:31.188Z,946.14
2018-04-24T03:32:31.071Z,946.15
2018-04-24T03:33:30.993Z,946.16
2018-04-24T03:34:30.978Z,946.15
2018-04-24T03:35:30.796Z,946.11
2018-04-24T03:36:30.707Z,946.11
2018-04-24T03:37:30.639Z,946.10
2018-04-24T03:38:30.522Z,946.09
2018-04-24T03:39:30.430Z,946.10
2018-04-24T03:40:30.335Z,946.10
2018-04-24T03:41:30.344Z,946.07
2018-04-24T03:42:30.186Z,946.08
2018-04-24T03:43:30.063Z,946.10
2018-04-24T03:44:29.971Z,946.13
2018-04-24T03:45:29.879Z,946.16
2018-04-24T03:46:29.795Z,946.15
2018-04-24T03:47:29.728Z,946.17
2018-04-24T03:48:29.701Z,946.18
2018-04-24T03:49:29.514Z,946.18
2018-04-24T03:50:29.421Z,946.21
2018-04-24T03:51:29.331Z,946.17
2018-04-24T03:52:29.270Z,946.23
2018-04-24T03:53:29.147Z,946.24
2018-04-24T03:54:29.053Z,946.23
2018-04-24T03:55:29.057Z,946.24
2018-04-24T03:56:28.872Z,946.25
2018-04-24T03:57:28.810Z,946.30
2018-04-24T03:58:28.688Z,946.29
2018-04-24T03:59:28.600Z,946.25
2018-04-24T04:00:28.505Z,946.25
2018-04-24T04:01:28.415Z,946.25
2018-04-24T04:02:28.449Z,946.24
2018-04-24T04:03:28.228Z,946.28
2018-04-24T04:04:28.138Z,946.33
2018-04-24T04:05:28.047Z,946.30
2018-04-24T04:06:27.954Z,946.27
2018-04-24T04:07:27.890Z,946.25
2018-04-24T04:08:27.769Z,946.24
2018-04-24T04:09:27.776Z,946.25
2018-04-24T04:10:27.586Z,946.24
2018-04-24T04:11:27.495Z,946.23
2018-04-24T04:12:27.433Z,946.22
2018-04-24T04:13:27.310Z,946.20
2018-04-24T04:14:27.215Z,946.22
2018-04-24T04:15:27.125Z,946.20
2018-04-24T04:16:27.142Z,946.16
2018-04-24T04:17:26.973Z,946.18
2018-04-24T04:18:26.852Z,946.17
2018-04-24T04:19:26.758Z,946.14
2018-04-24T04:20:26.669Z,946.13
2018-04-24T04:21:26.576Z,946.14
2018-04-24T04:22:26.577Z,946.10
2018-04-24T04:23:26.392Z,946.12
2018-04-24T04:24:26.300Z,946.11
2018-04-24T04:25:26.212Z,946.18
2018-04-24T04:26:26.116Z,946.12
2018-04-24T04:27:26.026Z,946.18
2018-04-24T04:28:25.963Z,946.18
2018-04-24T04:29:25.840Z,946.16
2018-04-24T04:30:25.748Z,946.14
2018-04-24T04:31:25.659Z,946.17
2018-04-24T04:32:25.568Z,946.18
2018-04-24T04:33:25.505Z,946.16
2018-04-24T04:34:25.383Z,946.16
2018-04-24T04:35:25.288Z,946.19
2018-04-24T04:36:25.216Z,946.21
2018-04-24T04:37:25.108Z,946.24
2018-04-24T04:38:25.048Z,946.21
2018-04-24T04:39:24.935Z,946.23
2018-04-24T04:40:24.832Z,946.23
2018-04-24T04:41:24.818Z,946.22
2018-04-24T04:42:24.648Z,946.22
2018-04-24T04:43:24.589Z,946.18
2018-04-24T04:44:24.464Z,946.25
2018-04-24T04:45:24.375Z,946.22
2018-04-24T04:46:24.281Z,946.21
2018-04-24T04:47:24.189Z,946.21
2018-04-24T04:48:24.126Z,946.21
2018-04-24T04:49:24.007Z,946.21
2018-04-24T04:50:23.912Z,946.23
2018-04-24T04:51:23.822Z,946.24
2018-04-24T04:52:23.730Z,946.23
2018-04-24T04:53:23.667Z,946.25
2018-04-24T04:54:23.547Z,946.23
2018-04-24T04:55:23.453Z,946.24
2018-04-24T04:56:23.362Z,946.26
2018-04-24T04:57:23.274Z,946.25
2018-04-24T04:58:23.207Z,946.27
2018-04-24T04:59:23.090Z,946.28
2018-04-24T05:00:22.996Z,946.32
2018-04-24T05:01:22.904Z,946.29
2018-04-24T05:02:22.812Z,946.32
2018-04-24T05:03:22.752Z,946.33
2018-04-24T05:04:22.628Z,946.29
2018-04-24T05:05:22.538Z,946.32
2018-04-24T05:06:22.445Z,946.35
2018-04-24T05:07:22.355Z,946.34
2018-04-24T05:08:22.296Z,946.37
2018-04-24T05:09:22.173Z,946.43
2018-04-24T05:10:22.078Z,946.42
2018-04-24T05:11:21.987Z,946.46
2018-04-24T05:12:21.896Z,946.48
2018-04-24T05:13:21.836Z,946.51
2018-04-24T05:14:21.715Z,946.54
2018-04-24T05:15:21.624Z,946.58
2018-04-24T05:16:21.532Z,946.57
2018-04-24T05:17:21.993Z,946.65
2018-04-24T05:18:21.485Z,946.61
2018-04-24T05:19:21.258Z,946.60
2018-04-24T05:20:21.169Z,946.58
2018-04-24T05:21:21.077Z,946.56
2018-04-24T05:22:20.984Z,946.56
2018-04-24T05:23:20.928Z,946.56
2018-04-24T05:24:20.807Z,946.64
2018-04-24T05:25:20.714Z,946.58
2018-04-24T05:26:20.622Z,946.65
2018-04-24T05:27:20.530Z,946.63
2018-04-24T05:28:20.490Z,946.63
2018-04-24T05:29:20.351Z,946.68
2018-04-24T05:30:20.258Z,946.70
2018-04-24T05:31:20.164Z,946.74
2018-04-24T05:32:20.175Z,946.74
2018-04-24T05:33:19.987Z,946.79
2018-04-24T05:34:19.924Z,946.82
2018-04-24T05:35:19.809Z,946.79
2018-04-24T05:36:19.715Z,946.85
2018-04-24T05:37:19.624Z,946.83
2018-04-24T05:38:19.539Z,946.85
2018-04-24T05:39:19.470Z,946.85
2018-04-24T05:40:19.351Z,946.90
2018-04-24T05:41:19.262Z,946.90
2018-04-24T05:42:19.170Z,946.88
2018-04-24T05:43:19.085Z,946.84
2018-04-24T05:44:19.022Z,946.89
2018-04-24T05:45:18.913Z,946.89
2018-04-24T05:46:18.898Z,946.85
2018-04-24T05:47:18.717Z,946.89
2018-04-24T05:48:18.625Z,946.82
2018-04-24T05:49:18.570Z,946.77
2018-04-24T05:50:18.448Z,946.82
2018-04-24T05:51:19.001Z,946.74
2018-04-24T05:52:19.109Z,946.78
2018-04-24T05:53:18.273Z,946.84
2018-04-24T05:54:18.116Z,946.79
2018-04-24T05:55:17.999Z,946.90
2018-04-24T05:56:17.909Z,946.90
2018-04-24T05:57:17.817Z,946.91
2018-04-24T05:58:17.728Z,946.86
2018-04-24T05:59:17.663Z,946.98
2018-04-24T06:00:17.641Z,946.99
2018-04-24T06:01:17.457Z,947.04
2018-04-24T06:02:17.364Z,947.05
2018-04-24T06:03:17.276Z,946.96
2018-04-24T06:04:17.262Z,947.04
2018-04-24T06:05:17.096Z,947.17
2018-04-24T06:06:17.007Z,946.93
2018-04-24T06:07:17.007Z,947.07
2018-04-24T06:08:16.827Z,946.98
2018-04-24T06:09:16.771Z,947.28
2018-04-24T06:10:16.645Z,947.27
2018-04-24T06:11:16.559Z,947.23
2018-04-24T06:12:16.469Z,947.32
2018-04-24T06:13:16.378Z,947.50
2018-04-24T06:14:16.991Z,947.24
2018-04-24T06:15:16.197Z,947.33
2018-04-24T06:16:16.109Z,947.48
2018-04-24T06:17:16.020Z,947.41
2018-04-24T06:18:15.930Z,947.38
2018-04-24T06:19:15.872Z,947.45
2018-04-24T06:20:15.750Z,947.51
2018-04-24T06:21:15.790Z,947.45
2018-04-24T06:22:15.573Z,947.54
2018-04-24T06:23:15.485Z,947.46
2018-04-24T06:24:15.426Z,947.35
2018-04-24T06:25:15.306Z,947.53
2018-04-24T06:26:15.219Z,947.15
2018-04-24T06:27:15.134Z,947.41
2018-04-24T06:28:15.136Z,947.64
2018-04-24T06:29:14.985Z,947.56
2018-04-24T06:30:15.514Z,947.34
2018-04-24T06:31:14.775Z,947.79
2018-04-24T06:32:14.687Z,947.71
2018-04-24T06:33:14.601Z,947.78
2018-04-24T06:34:14.542Z,947.52
2018-04-24T06:35:14.514Z,947.36
2018-04-24T06:36:14.335Z,947.34
2018-04-24T06:37:14.250Z,947.37
2018-04-24T06:38:14.160Z,947.26
2018-04-24T06:39:14.103Z,947.24
2018-04-24T06:40:13.985Z,947.42
2018-04-24T06:41:13.896Z,947.76
2018-04-24T06:42:13.938Z,947.99
2018-04-24T06:43:13.721Z,948.00
2018-04-24T06:44:13.637Z,948.27
2018-04-24T06:45:13.578Z,948.45
2018-04-24T06:46:13.463Z,949.26
2018-04-24T06:47:13.370Z,950.40
2018-04-24T06:48:13.282Z,950.89
2018-04-24T06:49:13.295Z,952.05
2018-04-24T06:50:13.139Z,954.15
2018-04-24T06:51:13.020Z,956.87
2018-04-24T06:52:13.517Z,955.95
2018-04-24T06:53:12.847Z,953.42
2018-04-24T06:54:12.763Z,956.63
2018-04-24T06:55:12.798Z,961.95
2018-04-24T06:56:12.588Z,959.25
2018-04-24T06:57:12.503Z,950.13
2018-04-24T06:58:12.415Z,955.46
2018-04-24T06:59:12.330Z,958.46
2018-04-24T07:00:12.272Z,958.04
2018-04-24T07:01:12.155Z,958.20
2018-04-24T07:02:12.067Z,958.01
2018-04-24T07:03:12.002Z,956.96
2018-04-24T07:04:11.898Z,956.83
2018-04-24T07:05:11.840Z,954.87
2018-04-24T07:06:11.726Z,954.35
2018-04-24T07:07:11.642Z,954.99
2018-04-24T07:08:11.555Z,954.80
2018-04-24T07:09:11.469Z,954.01
2018-04-24T07:10:11.418Z,954.32
2018-04-24T07:11:11.298Z,953.90
2018-04-24T07:12:11.216Z,954.01
2018-04-24T07:13:11.142Z,953.27
2018-04-24T07:14:11.064Z,953.62
2018-04-24T07:15:10.991Z,951.27
2018-04-24T07:16:10.878Z,952.46
2018-04-24T07:17:10.790Z,952.67
2018-04-24T07:18:10.710Z,952.88
2018-04-24T07:19:10.634Z,952.54
2018-04-24T07:20:11.975Z,952.74
2018-04-24T07:21:10.449Z,952.04
2018-04-24T07:22:10.391Z,952.68
2018-04-24T07:23:10.383Z,947.78
2018-04-24T07:24:10.201Z,947.95
2018-04-24T07:25:10.147Z,947.45
2018-04-24T07:26:10.029Z,951.53
2018-04-24T07:27:09.962Z,951.75
2018-04-24T07:28:09.864Z,951.92
2018-04-24T07:29:09.779Z,951.63
2018-04-24T07:30:09.729Z,951.22
2018-04-24T07:31:09.611Z,947.89
2018-04-24T07:32:09.528Z,947.73
2018-04-24T07:33:09.443Z,947.74
2018-04-24T07:34:09.357Z,948.26
2018-04-24T07:35:09.307Z,950.40
2018-04-24T07:36:09.193Z,951.32
2018-04-24T07:37:09.112Z,951.26
2018-04-24T07:38:09.024Z,951.37
2018-04-24T07:39:08.941Z,948.64
2018-04-24T07:40:08.890Z,950.24
2018-04-24T07:41:08.855Z,948.46
2018-04-24T07:42:08.691Z,948.07
2018-04-24T07:43:08.604Z,947.68
2018-04-24T07:44:09.982Z,947.39
2018-04-24T07:45:08.468Z,947.38
2018-04-24T07:46:08.351Z,947.32
2018-04-24T07:47:08.283Z,947.33
2018-04-24T07:48:08.187Z,947.37
2018-04-24T07:49:08.109Z,947.34
2018-04-24T07:50:08.049Z,947.39
2018-04-24T07:51:07.936Z,947.60
2018-04-24T07:52:07.851Z,947.85
2018-04-24T07:53:07.775Z,947.61
2018-04-24T07:54:07.685Z,950.43
2018-04-24T07:55:07.601Z,947.74
2018-04-24T07:56:07.545Z,947.91
2018-04-24T07:57:07.428Z,951.09
2018-04-24T07:58:07.455Z,950.70
2018-04-24T07:59:07.260Z,948.50
2018-04-24T08:00:07.177Z,947.85
2018-04-24T08:01:07.123Z,947.80
2018-04-24T08:02:07.008Z,949.81
2018-04-24T08:03:06.922Z,948.49
2018-04-24T08:04:06.841Z,948.25
2018-04-24T08:05:06.755Z,947.92
2018-04-24T08:06:06.701Z,947.65
2018-04-24T08:07:06.591Z,952.42
2018-04-24T08:08:06.503Z,947.89
2018-04-24T08:09:06.437Z,947.64
2018-04-24T08:10:06.332Z,947.47
2018-04-24T08:11:06.274Z,947.46
2018-04-24T08:12:06.257Z,947.52
2018-04-24T08:13:06.077Z,947.57
2018-04-24T08:14:05.995Z,947.50
2018-04-24T08:15:05.907Z,947.34
2018-04-24T08:16:05.854Z,947.35
2018-04-24T08:17:05.739Z,947.40
2018-04-24T08:18:05.650Z,947.54
2018-04-24T08:19:05.659Z,947.53
2018-04-24T08:20:05.481Z,947.56
2018-04-24T08:21:05.432Z,947.51
2018-04-24T08:22:05.309Z,948.38
2018-04-24T08:23:05.223Z,947.74
2018-04-24T08:24:05.137Z,948.54
2018-04-24T08:25:06.996Z,947.92
2018-04-24T08:26:04.994Z,947.77
2018-04-24T08:27:04.887Z,948.50
2018-04-24T08:28:04.797Z,947.87
2018-04-24T08:29:04.711Z,948.44
2018-04-24T08:30:04.627Z,948.58
2018-04-24T08:31:04.576Z,948.63
2018-04-24T08:32:04.457Z,948.68
2018-04-24T08:33:04.370Z,948.63
2018-04-24T08:34:04.282Z,948.64
2018-04-24T08:35:04.198Z,948.69
2018-04-24T08:36:04.190Z,948.61
2018-04-24T08:37:04.026Z,948.57
2018-04-24T08:38:03.942Z,948.54
2018-04-24T08:39:03.939Z,948.44
2018-04-24T08:40:03.835Z,948.46
2018-04-24T08:41:03.716Z,948.52
2018-04-24T08:42:03.600Z,948.42
2018-04-24T08:43:03.518Z,948.37
2018-04-24T08:44:03.433Z,948.43
2018-04-24T08:45:03.352Z,948.40
2018-04-24T08:46:03.292Z,948.25
2018-04-24T08:47:03.179Z,948.03
2018-04-24T08:48:03.095Z,947.93
2018-04-24T08:49:03.011Z,948.14
2018-04-24T08:50:02.928Z,948.14
2018-04-24T08:51:02.876Z,948.16
2018-04-24T08:52:02.757Z,948.16
2018-04-24T08:53:02.679Z,947.99
2018-04-24T08:54:02.595Z,947.85
2018-04-24T08:55:04.014Z,947.86
2018-04-24T08:56:02.454Z,947.80
2018-04-24T08:57:02.341Z,948.10
2018-04-24T08:58:02.259Z,947.96
2018-04-24T08:59:02.173Z,947.74
2018-04-24T09:00:03.062Z,947.52
2018-04-24T09:01:02.035Z,947.61
2018-04-24T09:02:01.996Z,947.61
2018-04-24T09:03:01.836Z,947.86
2018-04-24T09:04:01.751Z,947.74
2018-04-24T09:05:01.664Z,947.81
2018-04-24T09:06:01.610Z,947.84
2018-04-24T09:07:01.496Z,947.96
2018-04-24T09:08:01.502Z,947.93
2018-04-24T09:09:01.329Z,948.05
2018-04-24T09:10:01.243Z,948.11
2018-04-24T09:11:01.190Z,948.16
2018-04-24T09:12:01.077Z,948.12
2018-04-24T09:13:00.991Z,948.12
2018-04-24T09:14:00.911Z,948.15
2018-04-24T09:15:00.818Z,948.06
2018-04-24T09:16:00.742Z,948.09
2018-04-24T09:17:00.680Z,948.01
2018-04-24T09:18:00.571Z,948.03
2018-04-24T09:19:00.481Z,948.08
2018-04-24T09:20:00.401Z,948.19
2018-04-24T09:21:00.315Z,948.10
2018-04-24T09:22:00.258Z,948.18
2018-04-24T09:23:00.152Z,948.18
2018-04-24T09:24:00.060Z,948.14
2018-04-24T09:24:59.975Z,948.20
2018-04-24T09:25:59.896Z,948.25
2018-04-24T09:26:59.842Z,948.17
2018-04-24T09:28:00.609Z,948.08
2018-04-24T09:28:59.735Z,947.97
2018-04-24T09:29:59.558Z,947.98
2018-04-24T09:30:59.475Z,948.08
2018-04-24T09:31:59.421Z,948.16
2018-04-24T09:32:59.308Z,948.21
2018-04-24T09:33:59.228Z,948.20
2018-04-24T09:34:59.142Z,948.27
2018-04-24T09:35:59.164Z,948.19
2018-04-24T09:36:59.016Z,947.84
2018-04-24T09:37:58.896Z,947.79
2018-04-24T09:38:58.813Z,947.86
2018-04-24T09:39:58.729Z,947.99
2018-04-24T09:40:58.645Z,948.25
2018-04-24T09:41:58.591Z,948.11
2018-04-24T09:42:58.480Z,948.09
2018-04-24T09:43:58.408Z,948.01
2018-04-24T09:44:58.316Z,948.04
2018-04-24T09:45:58.323Z,948.01
2018-04-24T09:46:58.175Z,948.07
2018-04-24T09:47:58.063Z,948.14
2018-04-24T09:48:57.997Z,948.19
2018-04-24T09:49:57.898Z,948.09
2018-04-24T09:50:57.815Z,948.15
2018-04-24T09:51:57.759Z,948.12
2018-04-24T09:52:57.648Z,948.04
2018-04-24T09:53:57.568Z,948.26
2018-04-24T09:54:57.485Z,948.13
2018-04-24T09:55:57.401Z,948.28
2018-04-24T09:56:57.348Z,948.07
2018-04-24T09:57:57.232Z,948.23
2018-04-24T09:58:57.150Z,948.25
2018-04-24T09:59:57.067Z,948.26
2018-04-24T10:00:56.994Z,948.24
2018-04-24T10:01:56.933Z,948.26
2018-04-24T10:02:56.821Z,948.15
2018-04-24T10:03:56.736Z,948.23
2018-04-24T10:04:56.653Z,948.25
2018-04-24T10:05:56.567Z,948.27
2018-04-24T10:06:56.520Z,947.86
2018-04-24T10:07:56.405Z,947.86
2018-04-24T10:08:56.322Z,948.07
2018-04-24T10:09:56.237Z,948.08
2018-04-24T10:10:56.157Z,948.01
2018-04-24T10:11:56.107Z,948.24
2018-04-24T10:12:55.991Z,948.20
2018-04-24T10:13:55.907Z,948.27
2018-04-24T10:14:55.827Z,948.20
2018-04-24T10:15:55.745Z,948.14
2018-04-24T10:16:55.691Z,948.37
2018-04-24T10:17:55.576Z,948.40
2018-04-24T10:18:55.493Z,948.39
2018-04-24T10:19:55.413Z,948.38
2018-04-24T10:20:55.332Z,948.36
2018-04-24T10:21:55.248Z,947.94
2018-04-24T10:22:55.193Z,948.37
2018-04-24T10:23:55.080Z,947.90
2018-04-24T10:24:55.000Z,948.29
2018-04-24T10:25:54.916Z,948.39
2018-04-24T10:26:54.835Z,948.44
2018-04-24T10:27:54.781Z,948.48
2018-04-24T10:28:54.668Z,948.37
2018-04-24T10:29:54.588Z,948.46
2018-04-24T10:30:54.507Z,948.36
2018-04-24T10:31:54.421Z,948.44
2018-04-24T10:32:54.375Z,948.34
2018-04-24T10:33:54.256Z,947.80
2018-04-24T10:34:54.178Z,948.05
2018-04-24T10:35:54.090Z,947.69
2018-04-24T10:36:54.014Z,948.25
2018-04-24T10:37:53.957Z,948.39
2018-04-24T10:38:53.847Z,948.41
2018-04-24T10:39:53.764Z,948.41
2018-04-24T10:40:53.680Z,948.46
2018-04-24T10:41:53.599Z,948.42
2018-04-24T10:42:53.554Z,948.42
2018-04-24T10:43:53.522Z,948.23
2018-04-24T10:44:53.354Z,947.80
2018-04-24T10:45:53.274Z,947.68
2018-04-24T10:46:53.191Z,947.71
2018-04-24T10:47:53.141Z,948.36
2018-04-24T10:48:53.026Z,947.67
2018-04-24T10:49:52.947Z,947.65
2018-04-24T10:50:52.863Z,947.66
2018-04-24T10:51:52.784Z,947.69
2018-04-24T10:52:52.733Z,947.76
2018-04-24T10:53:52.622Z,947.70
2018-04-24T10:54:52.540Z,948.20
2018-04-24T10:55:52.521Z,947.64
2018-04-24T10:56:52.377Z,948.26
2018-04-24T10:57:52.323Z,948.26
2018-04-24T10:58:52.316Z,947.77
2018-04-24T10:59:52.127Z,948.09
2018-04-24T11:00:52.044Z,947.37
2018-04-24T11:01:51.964Z,948.08
2018-04-24T11:02:51.911Z,947.55
2018-04-24T11:03:51.799Z,947.90
2018-04-24T11:04:51.717Z,947.51
2018-04-24T11:05:51.727Z,947.97
2018-04-24T11:06:51.550Z,947.93
2018-04-24T11:07:51.503Z,947.97
2018-04-24T11:08:51.384Z,948.01
2018-04-24T11:09:51.298Z,948.08
2018-04-24T11:10:51.217Z,947.96
2018-04-24T11:11:51.197Z,947.68
2018-04-24T11:12:51.178Z,947.86
2018-04-24T11:13:51.005Z,947.96
2018-04-24T11:14:50.887Z,947.85
2018-04-24T11:15:50.803Z,947.81
2018-04-24T11:16:50.718Z,947.80
2018-04-24T11:17:50.664Z,947.91
2018-04-24T11:18:50.554Z,947.87
2018-04-24T11:19:50.565Z,947.85
2018-04-24T11:20:50.388Z,947.84
2018-04-24T11:21:50.306Z,947.69
2018-04-24T11:22:50.255Z,947.66
2018-04-24T11:23:50.146Z,947.70
2018-04-24T11:24:50.061Z,947.70
2018-04-24T11:25:49.976Z,947.81
2018-04-24T11:26:50.039Z,947.73
2018-04-24T11:27:49.848Z,947.80
2018-04-24T11:28:49.732Z,947.74
2018-04-24T11:29:49.652Z,947.82
2018-04-24T11:30:49.568Z,947.47
2018-04-24T11:31:49.491Z,947.64
2018-04-24T11:32:49.407Z,947.71
2018-04-24T11:33:49.446Z,947.66
2018-04-24T11:34:49.244Z,947.55
2018-04-24T11:35:49.159Z,947.58
2018-04-24T11:36:49.081Z,947.53
2018-04-24T11:37:48.998Z,947.49
2018-04-24T11:38:48.947Z,947.53
2018-04-24T11:39:48.834Z,947.49
2018-04-24T11:40:48.848Z,947.39
2018-04-24T11:41:48.675Z,947.49
2018-04-24T11:42:49.110Z,947.40
2018-04-24T11:43:48.541Z,947.32
2018-04-24T11:44:48.437Z,947.68
2018-04-24T11:45:48.347Z,947.77
2018-04-24T11:46:48.266Z,947.67
2018-04-24T11:47:49.065Z,947.64
2018-04-24T11:48:48.135Z,947.60
2018-04-24T11:49:48.021Z,947.69
2018-04-24T11:50:47.942Z,947.59
2018-04-24T11:51:47.858Z,947.58
2018-04-24T11:52:47.776Z,947.36
2018-04-24T11:53:47.720Z,947.55
2018-04-24T11:54:47.706Z,947.27
2018-04-24T11:55:47.532Z,947.38
2018-04-24T11:56:47.456Z,947.26
2018-04-24T11:57:47.369Z,947.29
2018-04-24T11:58:47.322Z,947.29
2018-04-24T11:59:47.207Z,947.58
2018-04-24T12:00:47.126Z,947.58
2018-04-24T12:01:47.136Z,947.57
2018-04-24T12:02:47.011Z,947.53
2018-04-24T12:03:46.909Z,947.43
2018-04-24T12:04:46.813Z,947.46
2018-04-24T12:05:46.716Z,947.50
2018-04-24T12:06:46.635Z,947.49
2018-04-24T12:07:46.555Z,947.52
2018-04-24T12:08:46.506Z,947.46
2018-04-24T12:09:46.390Z,947.18
2018-04-24T12:10:46.322Z,947.38
2018-04-24T12:11:46.233Z,947.48
2018-04-24T12:12:46.147Z,947.53
2018-04-24T12:13:46.095Z,947.47
2018-04-24T12:14:45.987Z,947.42
2018-04-24T12:15:45.992Z,947.50
2018-04-24T12:16:45.824Z,947.49
2018-04-24T12:17:45.743Z,947.23
2018-04-24T12:18:45.691Z,947.11
2018-04-24T12:19:45.581Z,946.99
2018-04-24T12:20:45.502Z,947.03
2018-04-24T12:21:45.420Z,947.20
2018-04-24T12:22:45.464Z,947.20
2018-04-24T12:23:45.286Z,947.32
2018-04-24T12:24:45.184Z,947.44
2018-04-24T12:25:45.101Z,947.41
2018-04-24T12:26:45.016Z,947.45
2018-04-24T12:27:44.937Z,947.10